sensor_id;sensor_type;location;lat;lon;timestamp;pressure;altitude;pressure_sealevel;temperature;humidity
47670;BME280;33408;52.062;11.722;2022-07-12T00:02:20;101892.59;;;16.39;100.00
47670;BME280;33408;52.062;11.722;2022-07-12T00:04:47;101897.75;;;16.43;100.00
47670;BME280;33408;52.062;11.722;2022-07-12T00:07:13;101900.50;;;16.36;100.00
47670;BME280;33408;52.062;11.722;2022-07-12T00:09:41;101897.63;;;16.47;100.00
47670;BME280;33408;52.062;11.722;2022-07-12T00:12:09;101888.13;;;16.43;100.00
47670;BME280;33408;52.062;11.722;2022-07-12T00:14:36;101890.84;;;16.38;100.00
47670;BME280;33408;52.062;11.722;2022-07-12T00:17:03;101892.41;;;16.47;100.00
47670;BME280;33408;52.062;11.722;2022-07-12T00:19:30;101888.25;;;16.38;100.00
47670;BME280;33408;52.062;11.722;2022-07-12T00:21:58;101883.13;;;16.34;100.00
47670;BME280;33408;52.062;11.722;2022-07-12T00:24:24;101888.38;;;16.32;100.00
47670;BME280;33408;52.062;11.722;2022-07-12T00:26:52;101890.19;;;16.30;100.00
47670;BME280;33408;52.062;11.722;2022-07-12T00:29:19;101889.25;;;16.33;100.00
47670;BME280;33408;52.062;11.722;2022-07-12T00:31:47;101888.41;;;16.31;100.00
47670;BME280;33408;52.062;11.722;2022-07-12T00:34:14;101884.34;;;16.19;100.00
47670;BME280;33408;52.062;11.722;2022-07-12T00:36:40;101884.47;;;16.13;100.00
47670;BME280;33408;52.062;11.722;2022-07-12T00:39:07;101888.91;;;16.11;100.00
47670;BME280;33408;52.062;11.722;2022-07-12T00:41:33;101884.56;;;16.10;100.00
47670;BME280;33408;52.062;11.722;2022-07-12T00:44:01;101890.84;;;16.02;100.00
47670;BME280;33408;52.062;11.722;2022-07-12T00:46:28;101895.09;;;16.07;100.00
47670;BME280;33408;52.062;11.722;2022-07-12T00:48:56;101890.97;;;15.96;100.00
47670;BME280;33408;52.062;11.722;2022-07-12T00:51:22;101890.16;;;15.94;100.00
47670;BME280;33408;52.062;11.722;2022-07-12T00:53:51;101886.56;;;15.98;100.00
47670;BME280;33408;52.062;11.722;2022-07-12T00:56:19;101882.50;;;15.85;100.00
47670;BME280;33408;52.062;11.722;2022-07-12T00:58:47;101886.88;;;15.84;100.00
47670;BME280;33408;52.062;11.722;2022-07-12T01:01:15;101879.00;;;15.86;100.00
47670;BME280;33408;52.062;11.722;2022-07-12T01:03:42;101884.31;;;15.81;100.00
47670;BME280;33408;52.062;11.722;2022-07-12T01:06:08;101886.19;;;15.76;100.00
47670;BME280;33408;52.062;11.722;2022-07-12T01:08:36;101883.56;;;15.76;100.00
47670;BME280;33408;52.062;11.722;2022-07-12T01:11:03;101891.53;;;15.68;100.00
47670;BME280;33408;52.062;11.722;2022-07-12T01:13:30;101888.81;;;15.76;100.00
47670;BME280;33408;52.062;11.722;2022-07-12T01:15:57;101886.19;;;15.75;100.00
47670;BME280;33408;52.062;11.722;2022-07-12T01:18:26;101891.56;;;15.67;100.00
47670;BME280;33408;52.062;11.722;2022-07-12T01:20:53;101891.44;;;15.73;100.00
47670;BME280;33408;52.062;11.722;2022-07-12T01:23:22;101894.00;;;15.78;100.00
47670;BME280;33408;52.062;11.722;2022-07-12T01:25:49;101897.63;;;15.69;100.00
47670;BME280;33408;52.062;11.722;2022-07-12T01:28:16;101895.16;;;15.61;100.00
47670;BME280;33408;52.062;11.722;2022-07-12T01:30:42;101897.69;;;15.66;100.00
47670;BME280;33408;52.062;11.722;2022-07-12T01:33:09;101901.31;;;15.60;100.00
47670;BME280;33408;52.062;11.722;2022-07-12T01:35:36;101905.88;;;15.49;100.00
47670;BME280;33408;52.062;11.722;2022-07-12T01:38:03;101906.13;;;15.37;100.00
47670;BME280;33408;52.062;11.722;2022-07-12T01:40:31;101902.88;;;15.25;100.00
47670;BME280;33408;52.062;11.722;2022-07-12T01:42:58;101911.53;;;15.26;100.00
47670;BME280;33408;52.062;11.722;2022-07-12T01:45:24;101908.06;;;15.27;100.00
47670;BME280;33408;52.062;11.722;2022-07-12T01:47:51;101906.44;;;15.20;100.00
47670;BME280;33408;52.062;11.722;2022-07-12T01:50:18;101909.28;;;15.09;100.00
47670;BME280;33408;52.062;11.722;2022-07-12T01:52:45;101915.50;;;15.00;100.00
47670;BME280;33408;52.062;11.722;2022-07-12T01:55:11;101916.53;;;14.91;100.00
47670;BME280;33408;52.062;11.722;2022-07-12T01:57:41;101914.84;;;14.87;100.00
47670;BME280;33408;52.062;11.722;2022-07-12T02:00:09;101915.78;;;14.85;100.00
47670;BME280;33408;52.062;11.722;2022-07-12T02:02:36;101913.31;;;14.77;100.00
47670;BME280;33408;52.062;11.722;2022-07-12T02:05:04;101909.91;;;14.72;100.00
47670;BME280;33408;52.062;11.722;2022-07-12T02:07:31;101913.34;;;14.74;100.00
47670;BME280;33408;52.062;11.722;2022-07-12T02:09:58;101915.13;;;14.72;100.00
47670;BME280;33408;52.062;11.722;2022-07-12T02:12:25;101915.94;;;14.75;100.00
47670;BME280;33408;52.062;11.722;2022-07-12T02:14:53;101924.66;;;14.74;100.00
47670;BME280;33408;52.062;11.722;2022-07-12T02:17:20;101922.38;;;14.51;100.00
47670;BME280;33408;52.062;11.722;2022-07-12T02:19:46;101922.44;;;14.48;100.00
47670;BME280;33408;52.062;11.722;2022-07-12T02:22:13;101925.13;;;14.44;100.00
47670;BME280;33408;52.062;11.722;2022-07-12T02:24:40;101920.94;;;14.33;100.00
47670;BME280;33408;52.062;11.722;2022-07-12T02:27:07;101929.72;;;14.26;100.00
47670;BME280;33408;52.062;11.722;2022-07-12T02:29:33;101934.16;;;14.21;100.00
47670;BME280;33408;52.062;11.722;2022-07-12T02:32:02;101925.41;;;14.25;100.00
47670;BME280;33408;52.062;11.722;2022-07-12T02:34:29;101927.03;;;14.31;100.00
47670;BME280;33408;52.062;11.722;2022-07-12T02:36:56;101924.44;;;14.31;100.00
47670;BME280;33408;52.062;11.722;2022-07-12T02:39:22;101920.16;;;14.27;100.00
47670;BME280;33408;52.062;11.722;2022-07-12T02:41:49;101919.41;;;14.20;100.00
47670;BME280;33408;52.062;11.722;2022-07-12T02:44:16;101925.53;;;14.16;100.00
47670;BME280;33408;52.062;11.722;2022-07-12T02:46:42;101932.47;;;14.18;100.00
47670;BME280;33408;52.062;11.722;2022-07-12T02:49:10;101936.97;;;14.07;100.00
47670;BME280;33408;52.062;11.722;2022-07-12T02:51:37;101937.81;;;14.08;100.00
47670;BME280;33408;52.062;11.722;2022-07-12T02:54:04;101942.09;;;14.12;100.00
47670;BME280;33408;52.062;11.722;2022-07-12T02:56:30;101947.41;;;14.07;100.00
47670;BME280;33408;52.062;11.722;2022-07-12T02:58:57;101944.75;;;14.09;100.00
47670;BME280;33408;52.062;11.722;2022-07-12T03:01:24;101946.44;;;14.11;100.00
47670;BME280;33408;52.062;11.722;2022-07-12T03:03:50;101935.16;;;14.12;100.00
47670;BME280;33408;52.062;11.722;2022-07-12T03:06:18;101948.22;;;14.11;100.00
47670;BME280;33408;52.062;11.722;2022-07-12T03:08:45;101942.00;;;14.18;100.00
47670;BME280;33408;52.062;11.722;2022-07-12T03:11:11;101944.59;;;14.19;100.00
47670;BME280;33408;52.062;11.722;2022-07-12T03:13:38;101948.00;;;14.25;100.00
47670;BME280;33408;52.062;11.722;2022-07-12T03:16:05;101951.47;;;14.27;100.00
47670;BME280;33408;52.062;11.722;2022-07-12T03:18:32;101956.69;;;14.27;100.00
47670;BME280;33408;52.062;11.722;2022-07-12T03:20:59;101950.66;;;14.21;100.00
47670;BME280;33408;52.062;11.722;2022-07-12T03:23:27;101961.00;;;14.26;100.00
47670;BME280;33408;52.062;11.722;2022-07-12T03:25:54;101960.16;;;14.26;100.00
47670;BME280;33408;52.062;11.722;2022-07-12T03:28:21;101961.69;;;14.40;100.00
47670;BME280;33408;52.062;11.722;2022-07-12T03:30:47;101953.88;;;14.39;100.00
47670;BME280;33408;52.062;11.722;2022-07-12T03:33:14;101957.34;;;14.41;100.00
47670;BME280;33408;52.062;11.722;2022-07-12T03:35:41;101950.31;;;14.46;100.00
47670;BME280;33408;52.062;11.722;2022-07-12T03:38:07;101956.50;;;14.37;100.00
47670;BME280;33408;52.062;11.722;2022-07-12T03:40:35;101954.81;;;14.35;100.00
47670;BME280;33408;52.062;11.722;2022-07-12T03:43:02;101960.97;;;14.31;100.00
47670;BME280;33408;52.062;11.722;2022-07-12T03:45:29;101954.75;;;14.41;100.00
47670;BME280;33408;52.062;11.722;2022-07-12T03:47:56;101960.09;;;14.30;100.00
47670;BME280;33408;52.062;11.722;2022-07-12T03:50:22;101964.72;;;14.72;100.00
47670;BME280;33408;52.062;11.722;2022-07-12T03:52:50;101965.88;;;16.00;100.00
47670;BME280;33408;52.062;11.722;2022-07-12T03:55:16;101959.16;;;17.01;100.00
47670;BME280;33408;52.062;11.722;2022-07-12T03:57:44;101949.13;;;18.11;100.00
47670;BME280;33408;52.062;11.722;2022-07-12T04:00:11;101950.81;;;18.95;96.13
47670;BME280;33408;52.062;11.722;2022-07-12T04:02:39;101943.31;;;19.10;90.42
47670;BME280;33408;52.062;11.722;2022-07-12T04:05:07;101940.94;;;19.51;85.78
47670;BME280;33408;52.062;11.722;2022-07-12T04:07:34;101946.88;;;19.81;84.01
47670;BME280;33408;52.062;11.722;2022-07-12T04:10:02;101948.59;;;20.06;83.19
47670;BME280;33408;52.062;11.722;2022-07-12T04:12:28;101963.84;;;19.96;82.19
47670;BME280;33408;52.062;11.722;2022-07-12T04:14:56;101959.03;;;19.85;83.06
47670;BME280;33408;52.062;11.722;2022-07-12T04:17:23;101957.94;;;19.42;84.17
47670;BME280;33408;52.062;11.722;2022-07-12T04:19:50;101956.59;;;20.03;82.31
47670;BME280;33408;52.062;11.722;2022-07-12T04:22:16;101949.44;;;20.07;81.01
47670;BME280;33408;52.062;11.722;2022-07-12T04:24:43;101957.09;;;20.35;79.93
47670;BME280;33408;52.062;11.722;2022-07-12T04:27:10;101956.44;;;20.08;80.86
47670;BME280;33408;52.062;11.722;2022-07-12T04:29:36;101961.28;;;19.71;83.38
47670;BME280;33408;52.062;11.722;2022-07-12T04:32:05;101967.28;;;19.75;82.72
47670;BME280;33408;52.062;11.722;2022-07-12T04:34:32;101980.97;;;19.36;84.97
47670;BME280;33408;52.062;11.722;2022-07-12T04:36:58;101977.63;;;20.49;81.22
47670;BME280;33408;52.062;11.722;2022-07-12T04:39:25;101967.56;;;20.14;82.03
47670;BME280;33408;52.062;11.722;2022-07-12T04:41:51;101969.09;;;20.42;80.02
47670;BME280;33408;52.062;11.722;2022-07-12T04:44:18;101977.44;;;20.75;78.81
47670;BME280;33408;52.062;11.722;2022-07-12T04:46:45;101980.88;;;20.77;77.15
47670;BME280;33408;52.062;11.722;2022-07-12T04:49:13;101974.09;;;21.54;75.46
47670;BME280;33408;52.062;11.722;2022-07-12T04:51:39;101971.13;;;22.00;74.50
47670;BME280;33408;52.062;11.722;2022-07-12T04:54:06;101965.66;;;22.41;70.06
47670;BME280;33408;52.062;11.722;2022-07-12T04:56:33;101968.13;;;22.81;69.13
47670;BME280;33408;52.062;11.722;2022-07-12T04:59:00;101985.38;;;21.58;73.63
47670;BME280;33408;52.062;11.722;2022-07-12T05:01:28;101997.69;;;21.57;73.88
47670;BME280;33408;52.062;11.722;2022-07-12T05:03:54;101998.56;;;21.58;75.44
47670;BME280;33408;52.062;11.722;2022-07-12T05:06:22;101992.38;;;21.78;74.38
47670;BME280;33408;52.062;11.722;2022-07-12T05:08:49;101992.16;;;21.02;77.50
47670;BME280;33408;52.062;11.722;2022-07-12T05:11:15;101994.09;;;21.79;76.71
47670;BME280;33408;52.062;11.722;2022-07-12T05:13:43;101996.81;;;21.36;76.50
47670;BME280;33408;52.062;11.722;2022-07-12T05:16:09;102001.50;;;22.47;74.22
47670;BME280;33408;52.062;11.722;2022-07-12T05:18:36;101996.41;;;21.87;73.46
47670;BME280;33408;52.062;11.722;2022-07-12T05:21:03;102000.38;;;21.95;74.59
47670;BME280;33408;52.062;11.722;2022-07-12T05:23:31;102000.56;;;23.02;70.21
47670;BME280;33408;52.062;11.722;2022-07-12T05:25:58;102002.16;;;22.33;70.44
47670;BME280;33408;52.062;11.722;2022-07-12T05:28:25;102012.13;;;21.07;76.54
47670;BME280;33408;52.062;11.722;2022-07-12T05:30:51;102016.53;;;21.07;79.33
47670;BME280;33408;52.062;11.722;2022-07-12T05:33:18;102019.78;;;20.93;79.63
47670;BME280;33408;52.062;11.722;2022-07-12T05:35:45;102024.09;;;20.94;80.94
47670;BME280;33408;52.062;11.722;2022-07-12T05:38:12;102017.19;;;20.47;83.17
47670;BME280;33408;52.062;11.722;2022-07-12T05:40:40;102018.53;;;20.35;83.08
47670;BME280;33408;52.062;11.722;2022-07-12T05:43:06;102025.41;;;20.62;85.53
47670;BME280;33408;52.062;11.722;2022-07-12T05:45:33;102025.41;;;20.84;83.16
47670;BME280;33408;52.062;11.722;2022-07-12T05:47:59;102021.22;;;21.00;81.59
47670;BME280;33408;52.062;11.722;2022-07-12T05:50:26;102027.09;;;21.07;82.19
47670;BME280;33408;52.062;11.722;2022-07-12T05:52:53;102022.09;;;22.40;77.54
47670;BME280;33408;52.062;11.722;2022-07-12T05:55:37;102019.25;;;22.45;72.48
47670;BME280;33408;52.062;11.722;2022-07-12T05:58:05;102016.38;;;22.11;75.11
47670;BME280;33408;52.062;11.722;2022-07-12T06:00:32;102025.94;;;21.95;76.83
47670;BME280;33408;52.062;11.722;2022-07-12T06:02:58;102024.09;;;21.37;79.06
47670;BME280;33408;52.062;11.722;2022-07-12T06:05:25;102029.41;;;21.35;79.60
47670;BME280;33408;52.062;11.722;2022-07-12T06:07:52;102022.69;;;21.28;80.55
47670;BME280;33408;52.062;11.722;2022-07-12T06:10:18;102029.41;;;21.56;79.18
47670;BME280;33408;52.062;11.722;2022-07-12T06:12:45;102028.28;;;21.20;80.46
47670;BME280;33408;52.062;11.722;2022-07-12T06:15:13;102031.06;;;21.38;79.72
47670;BME280;33408;52.062;11.722;2022-07-12T06:17:40;102025.81;;;20.29;82.21
47670;BME280;33408;52.062;11.722;2022-07-12T06:20:07;102021.22;;;20.34;83.58
47670;BME280;33408;52.062;11.722;2022-07-12T06:22:34;102023.66;;;20.16;85.32
47670;BME280;33408;52.062;11.722;2022-07-12T06:25:00;102030.91;;;19.86;87.57
47670;BME280;33408;52.062;11.722;2022-07-12T06:27:27;102029.53;;;19.76;88.49
47670;BME280;33408;52.062;11.722;2022-07-12T06:29:54;102027.66;;;20.03;88.50
47670;BME280;33408;52.062;11.722;2022-07-12T06:32:22;102023.53;;;19.96;89.42
47670;BME280;33408;52.062;11.722;2022-07-12T06:34:48;102039.13;;;19.77;90.51
47670;BME280;33408;52.062;11.722;2022-07-12T06:37:15;102041.22;;;19.92;90.09
47670;BME280;33408;52.062;11.722;2022-07-12T06:39:41;102039.63;;;19.63;89.95
47670;BME280;33408;52.062;11.722;2022-07-12T06:42:09;102030.06;;;19.85;91.75
47670;BME280;33408;52.062;11.722;2022-07-12T06:44:36;102031.16;;;20.27;88.85
47670;BME280;33408;52.062;11.722;2022-07-12T06:47:03;102037.63;;;20.64;87.75
47670;BME280;33408;52.062;11.722;2022-07-12T06:49:31;102031.09;;;20.51;87.21
47670;BME280;33408;52.062;11.722;2022-07-12T06:51:57;102033.03;;;20.46;87.35
47670;BME280;33408;52.062;11.722;2022-07-12T06:54:24;102033.97;;;21.11;82.61
47670;BME280;33408;52.062;11.722;2022-07-12T06:56:51;102034.34;;;21.02;83.98
47670;BME280;33408;52.062;11.722;2022-07-12T06:59:18;102038.34;;;21.10;83.83
47670;BME280;33408;52.062;11.722;2022-07-12T07:01:44;102035.78;;;21.09;83.61
47670;BME280;33408;52.062;11.722;2022-07-12T07:04:11;102031.06;;;20.74;84.05
47670;BME280;33408;52.062;11.722;2022-07-12T07:06:39;102035.38;;;20.98;83.98
47670;BME280;33408;52.062;11.722;2022-07-12T07:09:06;102031.53;;;21.06;84.60
47670;BME280;33408;52.062;11.722;2022-07-12T07:11:33;102036.81;;;20.84;84.65
47670;BME280;33408;52.062;11.722;2022-07-12T07:14:00;102024.91;;;20.52;85.34
47670;BME280;33408;52.062;11.722;2022-07-12T07:16:27;102027.41;;;20.79;86.38
47670;BME280;33408;52.062;11.722;2022-07-12T07:18:54;102027.88;;;21.09;84.53
47670;BME280;33408;52.062;11.722;2022-07-12T07:21:20;102029.69;;;20.86;83.64
47670;BME280;33408;52.062;11.722;2022-07-12T07:23:48;102016.50;;;21.29;82.14
47670;BME280;33408;52.062;11.722;2022-07-12T07:26:15;102013.97;;;21.05;82.48
47670;BME280;33408;52.062;11.722;2022-07-12T07:28:41;102018.66;;;21.60;80.77
47670;BME280;33408;52.062;11.722;2022-07-12T07:31:22;102017.50;;;21.87;79.68
47670;BME280;33408;52.062;11.722;2022-07-12T07:33:48;102019.56;;;20.77;81.23
47670;BME280;33408;52.062;11.722;2022-07-12T07:36:15;102015.75;;;21.05;81.28
47670;BME280;33408;52.062;11.722;2022-07-12T07:38:42;102016.47;;;21.08;82.00
47670;BME280;33408;52.062;11.722;2022-07-12T07:41:10;102014.56;;;21.12;81.73
47670;BME280;33408;52.062;11.722;2022-07-12T07:43:36;102013.34;;;21.21;81.81
47670;BME280;33408;52.062;11.722;2022-07-12T07:46:03;102009.81;;;21.41;80.93
47670;BME280;33408;52.062;11.722;2022-07-12T07:48:30;102016.91;;;21.61;80.42
47670;BME280;33408;52.062;11.722;2022-07-12T07:50:56;102025.19;;;21.10;81.56
47670;BME280;33408;52.062;11.722;2022-07-12T07:53:24;102022.31;;;21.58;80.17
47670;BME280;33408;52.062;11.722;2022-07-12T07:55:51;102015.81;;;21.44;81.28
47670;BME280;33408;52.062;11.722;2022-07-12T07:58:19;102013.19;;;21.24;81.42
47670;BME280;33408;52.062;11.722;2022-07-12T08:00:46;102012.81;;;21.54;81.26
47670;BME280;33408;52.062;11.722;2022-07-12T08:03:13;102012.28;;;21.66;79.74
47670;BME280;33408;52.062;11.722;2022-07-12T08:05:40;102019.91;;;21.10;79.85
47670;BME280;33408;52.062;11.722;2022-07-12T08:08:06;102020.78;;;21.11;80.86
47670;BME280;33408;52.062;11.722;2022-07-12T08:10:33;102016.94;;;21.18;80.34
47670;BME280;33408;52.062;11.722;2022-07-12T08:13:00;102011.22;;;21.29;79.41
47670;BME280;33408;52.062;11.722;2022-07-12T08:15:28;102011.63;;;21.61;78.89
47670;BME280;33408;52.062;11.722;2022-07-12T08:17:55;102010.53;;;21.44;78.00
47670;BME280;33408;52.062;11.722;2022-07-12T08:20:22;102005.97;;;21.68;77.44
47670;BME280;33408;52.062;11.722;2022-07-12T08:22:48;102000.47;;;22.13;75.26
47670;BME280;33408;52.062;11.722;2022-07-12T08:25:15;102006.28;;;22.00;74.40
47670;BME280;33408;52.062;11.722;2022-07-12T08:27:42;101995.88;;;21.97;72.00
47670;BME280;33408;52.062;11.722;2022-07-12T08:30:09;102004.38;;;22.23;71.67
47670;BME280;33408;52.062;11.722;2022-07-12T08:32:43;101999.25;;;22.01;72.22
47670;BME280;33408;52.062;11.722;2022-07-12T08:35:09;101995.56;;;22.61;74.18
47670;BME280;33408;52.062;11.722;2022-07-12T08:37:36;101998.78;;;22.85;70.79
47670;BME280;33408;52.062;11.722;2022-07-12T08:40:04;101996.31;;;22.45;70.65
47670;BME280;33408;52.062;11.722;2022-07-12T08:42:31;101996.28;;;22.64;71.51
47670;BME280;33408;52.062;11.722;2022-07-12T08:44:58;102000.09;;;22.20;68.96
47670;BME280;33408;52.062;11.722;2022-07-12T08:47:25;101997.38;;;22.95;68.35
47670;BME280;33408;52.062;11.722;2022-07-12T08:50:13;101995.91;;;22.89;69.45
47670;BME280;33408;52.062;11.722;2022-07-12T08:52:41;101995.41;;;22.81;68.92
47670;BME280;33408;52.062;11.722;2022-07-12T08:55:16;101989.53;;;22.39;67.60
47670;BME280;33408;52.062;11.722;2022-07-12T08:57:43;101983.59;;;22.71;66.47
47670;BME280;33408;52.062;11.722;2022-07-12T09:00:11;101977.53;;;22.32;66.70
47670;BME280;33408;52.062;11.722;2022-07-12T09:02:46;101969.84;;;22.82;65.21
47670;BME280;33408;52.062;11.722;2022-07-12T09:05:18;101974.59;;;22.75;64.11
47670;BME280;33408;52.062;11.722;2022-07-12T09:07:45;101979.63;;;22.97;60.08
47670;BME280;33408;52.062;11.722;2022-07-12T09:10:13;101977.09;;;23.13;59.47
47670;BME280;33408;52.062;11.722;2022-07-12T09:12:43;101973.66;;;23.28;60.80
47670;BME280;33408;52.062;11.722;2022-07-12T09:15:12;101975.22;;;23.82;58.99
47670;BME280;33408;52.062;11.722;2022-07-12T09:17:46;101976.63;;;24.05;57.29
47670;BME280;33408;52.062;11.722;2022-07-12T09:20:21;101964.72;;;23.80;57.55
47670;BME280;33408;52.062;11.722;2022-07-12T09:22:54;101966.47;;;23.97;57.68
47670;BME280;33408;52.062;11.722;2022-07-12T09:25:21;101975.09;;;23.34;56.51
47670;BME280;33408;52.062;11.722;2022-07-12T09:27:51;101965.13;;;23.73;55.54
47670;BME280;33408;52.062;11.722;2022-07-12T09:30:18;101960.91;;;23.86;50.82
47670;BME280;33408;52.062;11.722;2022-07-12T09:32:57;101957.81;;;24.10;52.40
47670;BME280;33408;52.062;11.722;2022-07-12T09:35:46;101956.47;;;24.02;53.64
47670;BME280;33408;52.062;11.722;2022-07-12T09:38:33;101962.88;;;23.49;53.92
47670;BME280;33408;52.062;11.722;2022-07-12T09:41:00;101958.38;;;23.67;56.00
47670;BME280;33408;52.062;11.722;2022-07-12T09:43:27;101957.91;;;24.08;54.35
47670;BME280;33408;52.062;11.722;2022-07-12T09:45:55;101962.59;;;24.19;52.71
47670;BME280;33408;52.062;11.722;2022-07-12T09:48:22;101974.09;;;24.50;54.08
47670;BME280;33408;52.062;11.722;2022-07-12T09:50:51;101962.75;;;24.32;53.33
47670;BME280;33408;52.062;11.722;2022-07-12T09:53:25;101957.59;;;23.65;53.97
47670;BME280;33408;52.062;11.722;2022-07-12T09:55:53;101954.38;;;23.76;53.29
47670;BME280;33408;52.062;11.722;2022-07-12T09:58:23;101973.28;;;24.33;53.09
47670;BME280;33408;52.062;11.722;2022-07-12T10:00:51;101959.63;;;24.09;52.62
47670;BME280;33408;52.062;11.722;2022-07-12T10:03:20;101975.09;;;24.33;50.96
47670;BME280;33408;52.062;11.722;2022-07-12T10:05:51;101964.41;;;24.34;50.86
47670;BME280;33408;52.062;11.722;2022-07-12T10:08:19;101963.91;;;24.74;50.22
47670;BME280;33408;52.062;11.722;2022-07-12T10:10:46;101967.63;;;24.39;49.71
47670;BME280;33408;52.062;11.722;2022-07-12T10:13:13;101968.88;;;24.64;49.91
47670;BME280;33408;52.062;11.722;2022-07-12T10:15:40;101967.06;;;24.95;49.21
47670;BME280;33408;52.062;11.722;2022-07-12T10:18:15;101967.81;;;24.83;49.55
47670;BME280;33408;52.062;11.722;2022-07-12T10:20:42;101960.09;;;25.08;46.79
47670;BME280;33408;52.062;11.722;2022-07-12T10:23:33;101958.94;;;25.12;47.49
47670;BME280;33408;52.062;11.722;2022-07-12T10:26:24;101963.28;;;24.99;47.40
47670;BME280;33408;52.062;11.722;2022-07-12T10:28:56;101970.13;;;25.03;48.31
47670;BME280;33408;52.062;11.722;2022-07-12T10:31:24;101975.38;;;24.89;46.52
47670;BME280;33408;52.062;11.722;2022-07-12T10:34:06;101972.66;;;25.05;46.58
47670;BME280;33408;52.062;11.722;2022-07-12T10:37:10;101966.31;;;24.93;45.96
47670;BME280;33408;52.062;11.722;2022-07-12T10:39:37;101965.75;;;24.57;46.97
47670;BME280;33408;52.062;11.722;2022-07-12T10:42:12;101962.38;;;24.54;46.93
47670;BME280;33408;52.062;11.722;2022-07-12T10:44:41;101961.31;;;25.03;45.86
47670;BME280;33408;52.062;11.722;2022-07-12T10:47:10;101948.28;;;25.43;46.37
47670;BME280;33408;52.062;11.722;2022-07-12T10:49:43;101943.63;;;25.61;45.27
47670;BME280;33408;52.062;11.722;2022-07-12T10:52:14;101950.22;;;25.97;45.44
47670;BME280;33408;52.062;11.722;2022-07-12T10:54:46;101940.75;;;25.78;43.73
47670;BME280;33408;52.062;11.722;2022-07-12T10:57:15;101949.59;;;25.50;43.71
47670;BME280;33408;52.062;11.722;2022-07-12T10:59:45;101943.47;;;26.06;42.41
47670;BME280;33408;52.062;11.722;2022-07-12T11:02:12;101936.44;;;25.90;42.63
47670;BME280;33408;52.062;11.722;2022-07-12T11:04:46;101939.88;;;26.07;41.74
47670;BME280;33408;52.062;11.722;2022-07-12T11:07:16;101939.53;;;26.11;43.27
47670;BME280;33408;52.062;11.722;2022-07-12T11:09:44;101938.06;;;26.07;42.76
47670;BME280;33408;52.062;11.722;2022-07-12T11:12:10;101936.72;;;25.58;43.47
47670;BME280;33408;52.062;11.722;2022-07-12T11:14:45;101935.66;;;26.17;42.78
47670;BME280;33408;52.062;11.722;2022-07-12T11:17:12;101936.53;;;25.89;42.07
47670;BME280;33408;52.062;11.722;2022-07-12T11:19:38;101938.59;;;26.12;41.32
47670;BME280;33408;52.062;11.722;2022-07-12T11:22:05;101930.00;;;26.09;41.31
47670;BME280;33408;52.062;11.722;2022-07-12T11:24:34;101930.00;;;26.09;41.11
47670;BME280;33408;52.062;11.722;2022-07-12T11:27:01;101935.66;;;26.17;41.32
47670;BME280;33408;52.062;11.722;2022-07-12T11:29:27;101932.03;;;25.76;41.99
47670;BME280;33408;52.062;11.722;2022-07-12T11:31:59;101908.88;;;26.60;41.18
47670;BME280;33408;52.062;11.722;2022-07-12T11:34:28;101910.59;;;26.74;40.43
47670;BME280;33408;52.062;11.722;2022-07-12T11:36:56;101906.38;;;26.44;40.07
47670;BME280;33408;52.062;11.722;2022-07-12T11:39:30;101908.38;;;26.68;39.37
47670;BME280;33408;52.062;11.722;2022-07-12T11:41:59;101906.09;;;26.49;39.27
47670;BME280;33408;52.062;11.722;2022-07-12T11:44:41;101896.91;;;26.40;39.19
47670;BME280;33408;52.062;11.722;2022-07-12T11:47:08;101888.53;;;26.59;38.28
47670;BME280;33408;52.062;11.722;2022-07-12T11:49:35;101899.75;;;26.37;37.60
47670;BME280;33408;52.062;11.722;2022-07-12T11:52:04;101899.13;;;26.86;37.68
47670;BME280;33408;52.062;11.722;2022-07-12T11:54:31;101893.94;;;26.45;38.30
47670;BME280;33408;52.062;11.722;2022-07-12T11:57:09;101881.53;;;26.71;38.57
47670;BME280;33408;52.062;11.722;2022-07-12T11:59:36;101882.28;;;26.60;38.00
47670;BME280;33408;52.062;11.722;2022-07-12T12:02:04;101881.53;;;27.35;37.97
47670;BME280;33408;52.062;11.722;2022-07-12T12:04:32;101884.16;;;27.48;38.04
47670;BME280;33408;52.062;11.722;2022-07-12T12:07:09;101882.19;;;27.39;38.46
47670;BME280;33408;52.062;11.722;2022-07-12T12:09:58;101885.84;;;27.62;36.81
47670;BME280;33408;52.062;11.722;2022-07-12T12:12:26;101885.22;;;27.95;36.18
47670;BME280;33408;52.062;11.722;2022-07-12T12:14:53;101874.09;;;28.01;36.99
47670;BME280;33408;52.062;11.722;2022-07-12T12:17:20;101877.09;;;27.10;37.37
47670;BME280;33408;52.062;11.722;2022-07-12T12:19:46;101876.22;;;27.09;36.98
47670;BME280;33408;52.062;11.722;2022-07-12T12:22:27;101871.38;;;27.53;37.48
47670;BME280;33408;52.062;11.722;2022-07-12T12:24:57;101866.13;;;27.89;38.09
47670;BME280;33408;52.062;11.722;2022-07-12T12:27:26;101860.22;;;27.22;37.23
47670;BME280;33408;52.062;11.722;2022-07-12T12:29:52;101874.44;;;26.71;37.75
47670;BME280;33408;52.062;11.722;2022-07-12T12:32:19;101879.13;;;26.68;38.17
47670;BME280;33408;52.062;11.722;2022-07-12T12:35:07;101870.00;;;27.47;37.37
47670;BME280;33408;52.062;11.722;2022-07-12T12:37:34;101868.63;;;27.55;36.69
47670;BME280;33408;52.062;11.722;2022-07-12T12:40:01;101866.53;;;28.19;36.84
47670;BME280;33408;52.062;11.722;2022-07-12T12:42:29;101860.25;;;27.59;36.74
47670;BME280;33408;52.062;11.722;2022-07-12T12:44:56;101858.97;;;27.65;37.51